Svitzer Stanlow — MLNF7 — position and weather

sailwx.info

Track history (hours):
 
Tides and Currents Weather Stations Pressure Air Temp Water Temp Dewpoint Dewpoint Depression Visibility Wind Speed Wind Dir Waves Ship Positions

Svitzer Stanlow

Last reported at 2015-Jul-04 16:29 UTC. Time now 2015-Jul-04 17:06 UTC.
Position N 53°23' W 002°60'.

Length 39 m.

Type: Tug. MMSI: 235010620.

Date/timePositionNaut miles runAvg speedWind from/ knotsBaromVisibWave heightAir tempDewpointWater temp
2015-Jul-04 16:29N 53°23' W 002°60'0 0.0
2015-Jul-04 15:32N 53°23' W 002°60'0 0.0
2015-Jul-04 14:32N 53°23' W 002°60'0 0.0
2015-Jul-04 13:29N 53°23' W 002°60'0 0.0
2015-Jul-04 12:32N 53°23' W 002°60'0 0.0
2015-Jul-04 11:29N 53°23' W 002°60'0 0.0
2015-Jul-04 10:32N 53°23' W 002°60'0 0.0
2015-Jul-04 09:33N 53°23' W 002°60'0 0.1
2015-Jul-04 08:25N 53°23' W 002°60'0 0.0
2015-Jul-04 07:31N 53°23' W 002°60'0 0.0
2015-Jul-04 06:28N 53°23' W 002°60'0 0.0
2015-Jul-04 05:31N 53°23' W 002°60'0 0.0
2015-Jul-04 04:28N 53°23' W 002°60'0 0.0
2015-Jul-04 03:31N 53°23' W 002°60'0 0.0
2015-Jul-04 02:31N 53°23' W 002°60'0 0.0
2015-Jul-04 01:31N 53°23' W 002°60'0 0.0
2015-Jul-04 00:34N 53°23' W 002°60'0 0.0
2015-Jul-03 23:33N 53°23' W 002°60'0 0.0
2015-Jul-03 22:33N 53°23' W 002°60'0 0.0
2015-Jul-03 21:33N 53°23' W 002°60'0 0.0
2015-Jul-03 20:27N 53°23' W 002°60'0 0.0
2015-Jul-03 19:30N 53°23' W 002°60'0 0.0
2015-Jul-03 18:27N 53°23' W 002°60'0 0.0
2015-Jul-03 17:33N 53°23' W 002°60'0 0.0
2015-Jul-03 16:33N 53°23' W 002°60'0 0.0
2015-Jul-03 15:33N 53°23' W 002°60'0 0.0
2015-Jul-03 14:30N 53°23' W 002°60'0 0.0
2015-Jul-03 13:33N 53°23' W 002°60'0 0.0
2015-Jul-03 12:33N 53°23' W 002°60'1 0.7
2015-Jul-03 11:30N 53°23' W 003°00'8 8.0
2015-Jul-03 10:34N 53°30' W 003°06'5 5.0
2015-Jul-03 09:33N 53°31' W 003°14'9 8.6
2015-Jul-03 08:33N 53°27' W 003°02'4 4.0
2015-Jul-03 07:33N 53°23' W 003°00'0 0.0
2015-Jul-03 06:33N 53°23' W 003°00'0 0.0
2015-Jul-03 05:30N 53°23' W 003°00'0 0.0
2015-Jul-03 04:33N 53°23' W 003°00'0 0.0
2015-Jul-03 03:33N 53°23' W 003°00'0 0.0
2015-Jul-03 02:33N 53°23' W 003°00'0 0.0
2015-Jul-03 01:33N 53°23' W 003°00'0 0.0
2015-Jul-03 00:33N 53°23' W 003°00'0 0.0
2015-Jul-02 23:33N 53°23' W 003°00'0 0.0
2015-Jul-02 22:30N 53°23' W 003°00'0 0.0
2015-Jul-02 21:33N 53°23' W 003°00'0 0.0
2015-Jul-02 20:33N 53°23' W 003°00'0 0.0
2015-Jul-02 19:33N 53°23' W 003°00'0 0.0
2015-Jul-02 18:33N 53°23' W 003°00'0 0.0
2015-Jul-02 17:33N 53°23' W 003°00'0 0.0
2015-Jul-02 16:33N 53°23' W 003°00'0 0.0
2015-Jul-02 15:30N 53°23' W 003°00'0 0.0
2015-Jul-02 14:26N 53°23' W 003°00'0 0.0
2015-Jul-02 13:32N 53°23' W 003°00'0 0.0
2015-Jul-02 12:32N 53°23' W 003°00'0 0.0
2015-Jul-02 11:32N 53°23' W 003°00'0 0.0
2015-Jul-02 10:23N 53°23' W 003°00'0 0.0
2015-Jul-02 09:32N 53°23' W 003°00'0 0.0
2015-Jul-02 08:32N 53°23' W 003°00'0 0.0
2015-Jul-02 07:32N 53°23' W 003°00'0 0.0
2015-Jul-02 06:32N 53°23' W 003°00'0 0.0
2015-Jul-02 05:32N 53°23' W 003°00'0 0.0
2015-Jul-02 04:29N 53°23' W 003°00'0 0.0
2015-Jul-02 03:32N 53°23' W 003°00'0 0.0
2015-Jul-02 02:29N 53°23' W 003°00'0 0.0
2015-Jul-02 01:32N 53°23' W 003°00'0 0.0
2015-Jul-02 00:26N 53°23' W 003°00'0 0.0
2015-Jul-01 23:32N 53°23' W 003°00'0 0.0
2015-Jul-01 22:29N 53°23' W 003°00'0 0.0
2015-Jul-01 21:32N 53°23' W 003°00'0 0.0
2015-Jul-01 20:32N 53°23' W 003°00'0 0.0
2015-Jul-01 19:32N 53°23' W 003°00'0 0.0
2015-Jul-01 18:32N 53°23' W 003°00'0 0.0
2015-Jul-01 17:32N 53°23' W 003°00'0 0.0
2015-Jul-01 16:32N 53°23' W 003°00'0 0.0
2015-Jul-01 15:32N 53°23' W 003°00'0 0.0
2015-Jul-01 14:29N 53°23' W 003°00'0 0.0
2015-Jul-01 13:32N 53°23' W 003°00'0 0.0
2015-Jul-01 12:32N 53°23' W 003°00'0 0.0
2015-Jul-01 11:26N 53°23' W 003°00'0 0.2
2015-Jul-01 10:33N 53°23' W 002°60'2 2.1
2015-Jul-01 09:33N 53°25' W 003°01'9 9.1
2015-Jul-01 08:33N 53°32' W 003°11'2 2.5
2015-Jul-01 07:33N 53°31' W 003°07'9 9.0
2015-Jul-01 06:33N 53°23' W 002°60'0 0.2
2015-Jul-01 05:32N 53°23' W 003°00'0 0.0
2015-Jul-01 04:29N 53°23' W 003°00'0 0.0
2015-Jul-01 03:32N 53°23' W 003°00'0 0.0
2015-Jul-01 02:29N 53°23' W 003°00'0 0.0
2015-Jul-01 01:32N 53°23' W 003°00'0 0.0
2015-Jul-01 00:32N 53°23' W 003°00'0 0.0
2015-Jun-30 23:32N 53°23' W 003°00'0 0.0
2015-Jun-30 22:32N 53°23' W 003°00'0 0.0
2015-Jun-30 21:32N 53°23' W 003°00'0 0.0
2015-Jun-30 20:32N 53°23' W 003°00'0 0.0
2015-Jun-30 19:32N 53°23' W 003°00'0 0.0
2015-Jun-30 18:32N 53°23' W 003°00'0 0.1
2015-Jun-30 17:33N 53°23' W 002°60'0 0.0
2015-Jun-30 16:33N 53°23' W 002°60'0 0.0
2015-Jun-30 15:30N 53°23' W 002°60'0 0.0
2015-Jun-30 14:33N 53°23' W 002°60'0 0.0
2015-Jun-30 13:33N 53°23' W 002°60'0 0.0
2015-Jun-30 12:33N 53°23' W 002°60'0 0.0
2015-Jun-30 11:33N 53°23' W 002°60'0 0.0
2015-Jun-30 10:33N 53°23' W 002°60'0 0.0
2015-Jun-30 09:33N 53°23' W 002°60'2 1.4
2015-Jun-30 08:27N 53°24' W 002°60'0 0.2
2015-Jun-30 07:32N 53°24' W 003°00'2 1.9
2015-Jun-30 06:33N 53°23' W 002°60'0 0.0
2015-Jun-30 05:31N 53°23' W 002°60'0 0.0
2015-Jun-30 04:31N 53°23' W 002°60'0 0.0
2015-Jun-30 03:31N 53°23' W 002°60'0 0.0
2015-Jun-30 02:31N 53°23' W 002°60'0 0.0
2015-Jun-30 01:31N 53°23' W 002°60'0 0.0
2015-Jun-30 00:31N 53°23' W 002°60'0 0.0
2015-Jun-29 23:31N 53°23' W 002°60'0 0.0
2015-Jun-29 22:31N 53°23' W 002°60'0 0.0
2015-Jun-29 21:28N 53°23' W 002°60'0 0.0
2015-Jun-29 20:31N 53°23' W 002°60'0 0.0
2015-Jun-29 19:22N 53°23' W 002°60'0 0.0
2015-Jun-29 18:31N 53°23' W 002°60'0 0.0
2015-Jun-29 17:31N 53°23' W 002°60'0 0.0
2015-Jun-29 16:31N 53°23' W 002°60'0 0.0
2015-Jun-29 15:25N 53°23' W 002°60'0 0.0
2015-Jun-29 14:33N 53°23' W 002°60'0 0.0
2015-Jun-29 13:33N 53°23' W 002°60'0 0.0
2015-Jun-29 12:24N 53°23' W 002°60'0 0.0
2015-Jun-29 11:30N 53°23' W 002°60'0 0.0
2015-Jun-29 10:33N 53°23' W 002°60'0 0.3
2015-Jun-29 09:33N 53°23' W 003°00'3 2.6
2015-Jun-29 08:33N 53°25' W 003°01'9 8.7
2015-Jun-29 07:33N 53°31' W 003°12'0 0.3
2015-Jun-29 06:33N 53°31' W 003°12'9 8.5
2015-Jun-29 05:33N 53°26' W 003°01'3 3.2
2015-Jun-29 04:33N 53°23' W 003°00'0 0.0
2015-Jun-29 03:33N 53°23' W 003°00'0 0.0
2015-Jun-29 02:33N 53°23' W 003°00'0 0.0
2015-Jun-29 01:30N 53°23' W 003°00'0 0.0
2015-Jun-29 00:33N 53°23' W 003°00'0 0.0
2015-Jun-28 23:33N 53°23' W 003°00'0 0.0
2015-Jun-28 22:33N 53°23' W 003°00'0 0.0
2015-Jun-28 21:33N 53°23' W 003°00'0 0.1
2015-Jun-28 20:32N 53°23' W 002°60'5 5.2
2015-Jun-28 19:33N 53°28' W 003°03'8 7.9
2015-Jun-28 18:34N 53°31' W 003°15'4 4.4
2015-Jun-28 17:33N 53°31' W 003°07'6 6.0
2015-Jun-28 16:31N 53°26' W 003°01'1 1.0
2015-Jun-28 15:34N 53°25' W 003°00'0 0.0
2015-Jun-28 14:34N 53°25' W 003°00'0 0.0
2015-Jun-28 13:33N 53°25' W 003°00'0 0.0
2015-Jun-28 12:33N 53°25' W 003°00'0 0.0
2015-Jun-28 11:30N 53°25' W 003°00'0 0.0
2015-Jun-28 10:33N 53°25' W 003°00'0 0.0
2015-Jun-28 09:33N 53°25' W 003°00'0 0.0
2015-Jun-28 08:33N 53°25' W 003°00'0 0.0
2015-Jun-28 07:33N 53°25' W 003°00'0 0.0
2015-Jun-28 06:30N 53°25' W 003°00'0 0.0
2015-Jun-28 05:33N 53°25' W 003°00'0 0.0
2015-Jun-28 04:33N 53°25' W 003°00'0 0.0
2015-Jun-28 03:30N 53°25' W 003°00'0 0.0
2015-Jun-28 02:33N 53°25' W 003°00'0 0.0
2015-Jun-28 01:30N 53°25' W 003°00'0 0.0
2015-Jun-28 00:33N 53°25' W 003°00'0 0.0
2015-Jun-27 23:33N 53°25' W 003°00'0 0.0
2015-Jun-27 22:33N 53°25' W 003°00'0 0.0
2015-Jun-27 21:33N 53°25' W 003°00'0 0.0
2015-Jun-27 20:33N 53°25' W 003°00'0 0.0
2015-Jun-27 19:30N 53°25' W 003°00'0 0.0
2015-Jun-27 18:33N 53°25' W 003°00'0 0.0
2015-Jun-27 17:33N 53°25' W 003°00'0 0.0
2015-Jun-27 16:33N 53°25' W 003°00'0 0.0
2015-Jun-27 15:33N 53°25' W 003°00'0 0.0
2015-Jun-27 14:33N 53°25' W 003°00'0 0.0
2015-Jun-27 13:33N 53°25' W 003°00'0 0.0
2015-Jun-27 12:33N 53°25' W 003°00'0 0.0
2015-Jun-27 11:33N 53°25' W 003°00'0 0.0
2015-Jun-27 10:33N 53°25' W 003°00'0 0.0
2015-Jun-27 09:27N 53°25' W 003°00'1 0.6
2015-Jun-27 08:33N 53°26' W 003°00'0 0.0
2015-Jun-25 15:33N 53°27' W 003°00'1 0.6
2015-Jun-25 14:28N 53°27' W 003°01'4 4.6
2015-Jun-25 13:31N 53°23' W 002°60'0 0.1
2015-Jun-25 12:33N 53°23' W 002°60'0 0.0
2015-Jun-25 11:33N 53°23' W 002°60'0 0.0
2015-Jun-25 10:33N 53°23' W 002°60'0 0.0
2015-Jun-25 09:33N 53°23' W 002°60'0 0.0
2015-Jun-25 08:33N 53°23' W 002°60'0 0.0
2015-Jun-25 07:33N 53°23' W 002°60'0 0.0
2015-Jun-25 06:30N 53°23' W 002°60'0 0.0
2015-Jun-25 05:33N 53°23' W 002°60'0 0.0
2015-Jun-25 04:32N 53°23' W 002°60'0 0.0
2015-Jun-25 03:32N 53°23' W 002°60'0 0.0
2015-Jun-25 02:32N 53°23' W 002°60'0 0.0
2015-Jun-25 01:32N 53°23' W 002°60'0 0.0
2015-Jun-25 00:32N 53°23' W 002°60'0 0.0
2015-Jun-24 23:32N 53°23' W 002°60'0 0.0
2015-Jun-24 22:32N 53°23' W 002°60'0 0.0
2015-Jun-24 21:32N 53°23' W 002°60'0 0.0
2015-Jun-24 20:32N 53°23' W 002°60'0 0.0
2015-Jun-24 19:32N 53°23' W 002°60'0 0.0
2015-Jun-24 18:32N 53°23' W 002°60'0 0.0
2015-Jun-24 17:32N 53°23' W 002°60'0 0.0
2015-Jun-24 16:29N 53°23' W 002°60'  
Track history (hours):
 
Tides and Currents Weather Stations Pressure Air Temp Water Temp Dewpoint Dewpoint Depression Visibility Wind Speed Wind Dir Waves Ship Positions

Svitzer Stanlow

Last reported at 2015-Jul-04 16:29 UTC. Time now 2015-Jul-04 17:06 UTC.
Position N 53°23' W 002°60'.

Length 39 m.

Type: Tug. MMSI: 235010620.

Date/timePositionNaut miles runAvg speedWind from/ knotsBaromVisibWave heightAir tempDewpointWater temp
2015-Jul-04 16:29N 53°23' W 002°60'0 0.0
2015-Jul-04 15:32N 53°23' W 002°60'0 0.0
2015-Jul-04 14:32N 53°23' W 002°60'0 0.0
2015-Jul-04 13:29N 53°23' W 002°60'0 0.0
2015-Jul-04 12:32N 53°23' W 002°60'0 0.0
2015-Jul-04 11:29N 53°23' W 002°60'0 0.0
2015-Jul-04 10:32N 53°23' W 002°60'0 0.0
2015-Jul-04 09:33N 53°23' W 002°60'0 0.1
2015-Jul-04 08:25N 53°23' W 002°60'0 0.0
2015-Jul-04 07:31N 53°23' W 002°60'0 0.0
2015-Jul-04 06:28N 53°23' W 002°60'0 0.0
2015-Jul-04 05:31N 53°23' W 002°60'0 0.0
2015-Jul-04 04:28N 53°23' W 002°60'0 0.0
2015-Jul-04 03:31N 53°23' W 002°60'0 0.0
2015-Jul-04 02:31N 53°23' W 002°60'0 0.0
2015-Jul-04 01:31N 53°23' W 002°60'0 0.0
2015-Jul-04 00:34N 53°23' W 002°60'0 0.0
2015-Jul-03 23:33N 53°23' W 002°60'0 0.0
2015-Jul-03 22:33N 53°23' W 002°60'0 0.0
2015-Jul-03 21:33N 53°23' W 002°60'0 0.0
2015-Jul-03 20:27N 53°23' W 002°60'0 0.0
2015-Jul-03 19:30N 53°23' W 002°60'0 0.0
2015-Jul-03 18:27N 53°23' W 002°60'0 0.0
2015-Jul-03 17:33N 53°23' W 002°60'0 0.0
2015-Jul-03 16:33N 53°23' W 002°60'0 0.0
2015-Jul-03 15:33N 53°23' W 002°60'0 0.0
2015-Jul-03 14:30N 53°23' W 002°60'0 0.0
2015-Jul-03 13:33N 53°23' W 002°60'0 0.0
2015-Jul-03 12:33N 53°23' W 002°60'1 0.7
2015-Jul-03 11:30N 53°23' W 003°00'8 8.0
2015-Jul-03 10:34N 53°30' W 003°06'5 5.0
2015-Jul-03 09:33N 53°31' W 003°14'9 8.6
2015-Jul-03 08:33N 53°27' W 003°02'4 4.0
2015-Jul-03 07:33N 53°23' W 003°00'0 0.0
2015-Jul-03 06:33N 53°23' W 003°00'0 0.0
2015-Jul-03 05:30N 53°23' W 003°00'0 0.0
2015-Jul-03 04:33N 53°23' W 003°00'0 0.0
2015-Jul-03 03:33N 53°23' W 003°00'0 0.0
2015-Jul-03 02:33N 53°23' W 003°00'0 0.0
2015-Jul-03 01:33N 53°23' W 003°00'0 0.0
2015-Jul-03 00:33N 53°23' W 003°00'0 0.0
2015-Jul-02 23:33N 53°23' W 003°00'0 0.0
2015-Jul-02 22:30N 53°23' W 003°00'0 0.0
2015-Jul-02 21:33N 53°23' W 003°00'0 0.0
2015-Jul-02 20:33N 53°23' W 003°00'0 0.0
2015-Jul-02 19:33N 53°23' W 003°00'0 0.0
2015-Jul-02 18:33N 53°23' W 003°00'0 0.0
2015-Jul-02 17:33N 53°23' W 003°00'0 0.0
2015-Jul-02 16:33N 53°23' W 003°00'0 0.0
2015-Jul-02 15:30N 53°23' W 003°00'0 0.0
2015-Jul-02 14:26N 53°23' W 003°00'0 0.0
2015-Jul-02 13:32N 53°23' W 003°00'0 0.0
2015-Jul-02 12:32N 53°23' W 003°00'0 0.0
2015-Jul-02 11:32N 53°23' W 003°00'0 0.0
2015-Jul-02 10:23N 53°23' W 003°00'0 0.0
2015-Jul-02 09:32N 53°23' W 003°00'0 0.0
2015-Jul-02 08:32N 53°23' W 003°00'0 0.0
2015-Jul-02 07:32N 53°23' W 003°00'0 0.0
2015-Jul-02 06:32N 53°23' W 003°00'0 0.0
2015-Jul-02 05:32N 53°23' W 003°00'0 0.0
2015-Jul-02 04:29N 53°23' W 003°00'0 0.0
2015-Jul-02 03:32N 53°23' W 003°00'0 0.0
2015-Jul-02 02:29N 53°23' W 003°00'0 0.0
2015-Jul-02 01:32N 53°23' W 003°00'0 0.0
2015-Jul-02 00:26N 53°23' W 003°00'0 0.0
2015-Jul-01 23:32N 53°23' W 003°00'0 0.0
2015-Jul-01 22:29N 53°23' W 003°00'0 0.0
2015-Jul-01 21:32N 53°23' W 003°00'0 0.0
2015-Jul-01 20:32N 53°23' W 003°00'0 0.0
2015-Jul-01 19:32N 53°23' W 003°00'0 0.0
2015-Jul-01 18:32N 53°23' W 003°00'0 0.0
2015-Jul-01 17:32N 53°23' W 003°00'0 0.0
2015-Jul-01 16:32N 53°23' W 003°00'0 0.0
2015-Jul-01 15:32N 53°23' W 003°00'0 0.0
2015-Jul-01 14:29N 53°23' W 003°00'0 0.0
2015-Jul-01 13:32N 53°23' W 003°00'0 0.0
2015-Jul-01 12:32N 53°23' W 003°00'0 0.0
2015-Jul-01 11:26N 53°23' W 003°00'0 0.2
2015-Jul-01 10:33N 53°23' W 002°60'2 2.1
2015-Jul-01 09:33N 53°25' W 003°01'9 9.1
2015-Jul-01 08:33N 53°32' W 003°11'2 2.5
2015-Jul-01 07:33N 53°31' W 003°07'9 9.0
2015-Jul-01 06:33N 53°23' W 002°60'0 0.2
2015-Jul-01 05:32N 53°23' W 003°00'0 0.0
2015-Jul-01 04:29N 53°23' W 003°00'0 0.0
2015-Jul-01 03:32N 53°23' W 003°00'0 0.0
2015-Jul-01 02:29N 53°23' W 003°00'0 0.0
2015-Jul-01 01:32N 53°23' W 003°00'0 0.0
2015-Jul-01 00:32N 53°23' W 003°00'0 0.0
2015-Jun-30 23:32N 53°23' W 003°00'0 0.0
2015-Jun-30 22:32N 53°23' W 003°00'0 0.0
2015-Jun-30 21:32N 53°23' W 003°00'0 0.0
2015-Jun-30 20:32N 53°23' W 003°00'0 0.0
2015-Jun-30 19:32N 53°23' W 003°00'0 0.0
2015-Jun-30 18:32N 53°23' W 003°00'0 0.1
2015-Jun-30 17:33N 53°23' W 002°60'0 0.0
2015-Jun-30 16:33N 53°23' W 002°60'0 0.0
2015-Jun-30 15:30N 53°23' W 002°60'0 0.0
2015-Jun-30 14:33N 53°23' W 002°60'0 0.0
2015-Jun-30 13:33N 53°23' W 002°60'0 0.0
2015-Jun-30 12:33N 53°23' W 002°60'0 0.0
2015-Jun-30 11:33N 53°23' W 002°60'0 0.0
2015-Jun-30 10:33N 53°23' W 002°60'0 0.0
2015-Jun-30 09:33N 53°23' W 002°60'2 1.4
2015-Jun-30 08:27N 53°24' W 002°60'0 0.2
2015-Jun-30 07:32N 53°24' W 003°00'2 1.9
2015-Jun-30 06:33N 53°23' W 002°60'0 0.0
2015-Jun-30 05:31N 53°23' W 002°60'0 0.0
2015-Jun-30 04:31N 53°23' W 002°60'0 0.0
2015-Jun-30 03:31N 53°23' W 002°60'0 0.0
2015-Jun-30 02:31N 53°23' W 002°60'0 0.0
2015-Jun-30 01:31N 53°23' W 002°60'0 0.0
2015-Jun-30 00:31N 53°23' W 002°60'0 0.0
2015-Jun-29 23:31N 53°23' W 002°60'0 0.0
2015-Jun-29 22:31N 53°23' W 002°60'0 0.0
2015-Jun-29 21:28N 53°23' W 002°60'0 0.0
2015-Jun-29 20:31N 53°23' W 002°60'0 0.0
2015-Jun-29 19:22N 53°23' W 002°60'0 0.0
2015-Jun-29 18:31N 53°23' W 002°60'0 0.0
2015-Jun-29 17:31N 53°23' W 002°60'0 0.0
2015-Jun-29 16:31N 53°23' W 002°60'0 0.0
2015-Jun-29 15:25N 53°23' W 002°60'0 0.0
2015-Jun-29 14:33N 53°23' W 002°60'0 0.0
2015-Jun-29 13:33N 53°23' W 002°60'0 0.0
2015-Jun-29 12:24N 53°23' W 002°60'0 0.0
2015-Jun-29 11:30N 53°23' W 002°60'0 0.0
2015-Jun-29 10:33N 53°23' W 002°60'0 0.3
2015-Jun-29 09:33N 53°23' W 003°00'3 2.6
2015-Jun-29 08:33N 53°25' W 003°01'9 8.7
2015-Jun-29 07:33N 53°31' W 003°12'0 0.3
2015-Jun-29 06:33N 53°31' W 003°12'9 8.5
2015-Jun-29 05:33N 53°26' W 003°01'3 3.2
2015-Jun-29 04:33N 53°23' W 003°00'0 0.0
2015-Jun-29 03:33N 53°23' W 003°00'0 0.0
2015-Jun-29 02:33N 53°23' W 003°00'0 0.0
2015-Jun-29 01:30N 53°23' W 003°00'0 0.0
2015-Jun-29 00:33N 53°23' W 003°00'0 0.0
2015-Jun-28 23:33N 53°23' W 003°00'0 0.0
2015-Jun-28 22:33N 53°23' W 003°00'0 0.0
2015-Jun-28 21:33N 53°23' W 003°00'0 0.1
2015-Jun-28 20:32N 53°23' W 002°60'5 5.2
2015-Jun-28 19:33N 53°28' W 003°03'8 7.9
2015-Jun-28 18:34N 53°31' W 003°15'4 4.4
2015-Jun-28 17:33N 53°31' W 003°07'6 6.0
2015-Jun-28 16:31N 53°26' W 003°01'1 1.0
2015-Jun-28 15:34N 53°25' W 003°00'0 0.0
2015-Jun-28 14:34N 53°25' W 003°00'0 0.0
2015-Jun-28 13:33N 53°25' W 003°00'0 0.0
2015-Jun-28 12:33N 53°25' W 003°00'0 0.0
2015-Jun-28 11:30N 53°25' W 003°00'0 0.0
2015-Jun-28 10:33N 53°25' W 003°00'0 0.0
2015-Jun-28 09:33N 53°25' W 003°00'0 0.0
2015-Jun-28 08:33N 53°25' W 003°00'0 0.0
2015-Jun-28 07:33N 53°25' W 003°00'0 0.0
2015-Jun-28 06:30N 53°25' W 003°00'0 0.0
2015-Jun-28 05:33N 53°25' W 003°00'0 0.0
2015-Jun-28 04:33N 53°25' W 003°00'0 0.0
2015-Jun-28 03:30N 53°25' W 003°00'0 0.0
2015-Jun-28 02:33N 53°25' W 003°00'0 0.0
2015-Jun-28 01:30N 53°25' W 003°00'0 0.0
2015-Jun-28 00:33N 53°25' W 003°00'0 0.0
2015-Jun-27 23:33N 53°25' W 003°00'0 0.0
2015-Jun-27 22:33N 53°25' W 003°00'0 0.0
2015-Jun-27 21:33N 53°25' W 003°00'0 0.0
2015-Jun-27 20:33N 53°25' W 003°00'0 0.0
2015-Jun-27 19:30N 53°25' W 003°00'0 0.0
2015-Jun-27 18:33N 53°25' W 003°00'0 0.0
2015-Jun-27 17:33N 53°25' W 003°00'0 0.0
2015-Jun-27 16:33N 53°25' W 003°00'0 0.0
2015-Jun-27 15:33N 53°25' W 003°00'0 0.0
2015-Jun-27 14:33N 53°25' W 003°00'0 0.0
2015-Jun-27 13:33N 53°25' W 003°00'0 0.0
2015-Jun-27 12:33N 53°25' W 003°00'0 0.0
2015-Jun-27 11:33N 53°25' W 003°00'0 0.0
2015-Jun-27 10:33N 53°25' W 003°00'0 0.0
2015-Jun-27 09:27N 53°25' W 003°00'1 0.6
2015-Jun-27 08:33N 53°26' W 003°00'0 0.0
2015-Jun-25 15:33N 53°27' W 003°00'1 0.6
2015-Jun-25 14:28N 53°27' W 003°01'4 4.6
2015-Jun-25 13:31N 53°23' W 002°60'0 0.1
2015-Jun-25 12:33N 53°23' W 002°60'0 0.0
2015-Jun-25 11:33N 53°23' W 002°60'0 0.0
2015-Jun-25 10:33N 53°23' W 002°60'0 0.0
2015-Jun-25 09:33N 53°23' W 002°60'0 0.0
2015-Jun-25 08:33N 53°23' W 002°60'0 0.0
2015-Jun-25 07:33N 53°23' W 002°60'0 0.0
2015-Jun-25 06:30N 53°23' W 002°60'0 0.0
2015-Jun-25 05:33N 53°23' W 002°60'0 0.0
2015-Jun-25 04:32N 53°23' W 002°60'0 0.0
2015-Jun-25 03:32N 53°23' W 002°60'0 0.0
2015-Jun-25 02:32N 53°23' W 002°60'0 0.0
2015-Jun-25 01:32N 53°23' W 002°60'0 0.0
2015-Jun-25 00:32N 53°23' W 002°60'0 0.0
2015-Jun-24 23:32N 53°23' W 002°60'0 0.0
2015-Jun-24 22:32N 53°23' W 002°60'0 0.0
2015-Jun-24 21:32N 53°23' W 002°60'0 0.0
2015-Jun-24 20:32N 53°23' W 002°60'0 0.0
2015-Jun-24 19:32N 53°23' W 002°60'0 0.0
2015-Jun-24 18:32N 53°23' W 002°60'0 0.0
2015-Jun-24 17:32N 53°23' W 002°60'0 0.0
2015-Jun-24 16:29N 53°23' W 002°60'  

Dump ship's entire track history